Tropical Cyclones
[Index]
Main Index Home Page Stock Weather Photos Extreme Storms Discussion Storm News and Storm Chasing Reports Tropical Cyclones / Hurricanes / Typhoons Weather Data and Links Wild Fires / Bushfires Weather Observation Techniques Weather Picture Catalogue Tornado Pictures and Reports Stock Video Footage and DVDs for sale
Season 1977-1978 Tropical Cyclone VERN Track Map
Season 1977-1978 Summaries: [BoM-AU] [JTWC-AU] [JTWC-SIO] [JTWC-SPAC] [JTWC-SH]
<<- Previous TC | BoM 1977-1978 Season | Next TC ->>

click for intensity scale information  Lat/long Grid: Show Hide

 Date Labels: Show Hide

Bureau of Meteorology Tropical Cyclone Data

Name: VERN
Number: 578 / 197778_04

27 Jan 1978 01:00 UTC to 03 Feb 1978 01:00 UTC

    date/time    lat    long    hPa   cat  kts
1978-01-27 01   16.0   114.8    999                     
1978-01-27 04   16.0   114.4    998                     
1978-01-27 07   16.0   114.0    997                     
1978-01-27 10   16.0   113.6    997                     
1978-01-27 13   16.0   113.2    997                     
1978-01-27 16   15.9   112.8    997                     
1978-01-27 19   15.8   112.4    997                     
1978-01-27 22   15.7   111.9    996                     
1978-01-28 01   15.6   111.4    995    1                
1978-01-28 04   15.5   110.8    994    1                
1978-01-28 07   15.4   110.2    992    1                
1978-01-28 10   15.6   109.6    990    1                
1978-01-28 13   16.4   109.7    988    1                
1978-01-28 16   16.6   110.8    986    1                
1978-01-28 19   16.4   111.6    984    2                
1978-01-28 22   16.2   112.2    982    2                
1978-01-29 01   16.1   112.7    981    2                
1978-01-29 04   16.0   113.0    980    2                
1978-01-29 07   15.9   113.3    979    2                
1978-01-29 10   15.8   113.7    978    2                
1978-01-29 13   15.8   114.0    977    2                
1978-01-29 16   15.8   114.3    976    2                
1978-01-29 19   15.7   114.6    975    2                
1978-01-29 22   15.7   114.9    974    2                
1978-01-30 01   15.7   115.3    973    2                
1978-01-30 04   15.8   116.0    971    2                
1978-01-30 07   15.9   116.7    969    3                
1978-01-30 10   16.0   117.2    968    3                
1978-01-30 13   16.2   117.6    968    3                
1978-01-30 16   16.3   118.1    968    3                
1978-01-30 19   16.5   118.9    967    3                
1978-01-30 22   16.7   119.5    966    3                
1978-01-31 01   17.0   120.0    965    3                
1978-01-31 04   17.2   120.3    965    3                
1978-01-31 07   17.5   120.5    964    3                
1978-01-31 10   17.8   121.0    965    3                
1978-01-31 12   17.9   121.1                            
1978-01-31 13   18.0   121.2    965    3                
1978-01-31 16   18.2   121.4    965    3                
1978-01-31 19   18.4   121.4    965    3                
1978-01-31 22   18.6   121.4    965    3                
1978-02-01 01   18.8   121.4    965    3                
1978-02-01 04   19.2   121.4    967    3                
1978-02-01 07   19.5   121.3    971    2                
1978-02-01 10   19.7   121.1    975    2                
1978-02-01 13   19.9   120.9    979    2                
1978-02-01 16   20.2   120.6    982    2                
1978-02-01 19   20.4   120.5    985    2                
1978-02-01 22   20.6   120.4    988    1                
1978-02-02 01   20.9   120.3    990    1                
1978-02-02 04   21.3   120.3    990    1                
1978-02-02 07   21.7   120.2    990    1                
1978-02-02 10   22.1   120.2    992    1                
1978-02-02 13   22.4   120.2    993    1                
1978-02-02 16   22.7   120.4    993    1                
1978-02-02 19   23.0   120.5    995    1                
1978-02-02 22   23.3   120.7    996                     
1978-02-03 01   23.6   121.0    997                     
Winds are 10-min average.

Tropical cyclone tracks developed by Michael Bath using data from the Bureau of Meteorology and Google Maps.


[Australian Severe Weather index] [Copyright Notice] [Email Contacts] [Search This Site] [Privacy Policy]
Document: tropical_cyclone_vern.htm Updated: 30 May 2013